Flight Track Log - Related Links

Times and Time Zones

All times are in EDT time to prevent confusion due to time zone crossing. See the SWA1319 flight status page for this flight to view local times or setup timezone preferences in your user account.

Time Position Orientation Groundspeed Altitude Reporting Facility
EDT Latitude Longitude Course Direction KTS MPH feet Rate Location/Type
Tue 10:02:15 PM 45.6122 -122.6553 292° West 197 227 2,200  Level Seattle Center
Tue 10:03:17 PM 45.6425 -122.7350 299° West 215 247 5,000 2,607 Climbing Seattle Center
Tue 10:04:17 PM 45.6286 -122.8217 257° West 282 325 7,500 2,727 Climbing Seattle Center
Tue 10:05:18 PM 45.5489 -122.8494 194° South 299 344 10,500 1,869 Climbing Seattle Center
Tue 10:06:19 PM 45.4514 -122.8847 194° South 360 414 11,300 1,426 Climbing Seattle Center
Tue 10:07:20 PM 45.3392 -122.9269 195° South 408 470 13,400 2,311 Climbing Seattle Center
Tue 10:08:21 PM 45.2167 -122.9331 182° South 438 504 16,000 2,083 Climbing Seattle Center
Tue 10:09:21 PM 45.0911 -122.9347 181° South 448 516 17,600 1,884 Climbing Seattle Center
Tue 10:10:22 PM 44.9592 -122.9367 181° South 468 539 19,800 1,820 Climbing Seattle Center
Tue 10:11:23 PM 44.8261 -122.9383 181° South 473 544 21,300 1,623 Climbing Seattle Center
Tue 10:12:24 PM 44.6894 -122.9386 180° South 481 554 23,100 1,623 Climbing Seattle Center
Tue 10:13:25 PM 44.5497 -122.9419 181° South 494 568 24,600 1,574 Climbing Seattle Center
Tue 10:14:26 PM 44.4075 -122.9422 180° South 505 581 26,300 2,410 Climbing Seattle Center
Tue 10:15:27 PM 44.2603 -122.9333 178° South 491 565 29,500 2,033 Climbing Seattle Center
Tue 10:16:27 PM 44.1275 -122.9317 179° South 470 541 30,400 793 Climbing Seattle Center
Tue 10:17:28 PM 43.9869 -122.9272 179° South 497 572 31,100 1,180 Climbing Seattle Center
Tue 10:18:29 PM 43.8481 -122.9244 179° South 497 572 32,800 1,328 Climbing Seattle Center
Tue 10:19:30 PM 43.7106 -122.9194 178° South 493 567 33,800 934 Climbing Seattle Center
Tue 10:20:31 PM 43.5725 -122.9158 179° South 496 571 34,700 590 Climbing Seattle Center
Tue 10:21:32 PM 43.4328 -122.9106 178° South 500 575 35,000 148 Climbing Seattle Center
Tue 10:22:33 PM 43.2956 -122.9069 179° South 494 568 35,000  Level Seattle Center
Tue 10:23:34 PM 43.1633 -122.9028 179° South 478 550 35,000  Level Seattle Center
Tue 10:24:35 PM 43.0311 -122.8975 178° South 475 547 35,000  Level Seattle Center
Tue 10:25:36 PM 42.8992 -122.8931 179° South 473 544 35,000  Level Seattle Center
Tue 10:26:37 PM 42.7422 -122.8881 179° South 471 542 35,000  Level Seattle Center
Tue 10:27:38 PM 42.6306 -122.8861 179° South 471 542 35,000  Level Seattle Center
Tue 10:28:39 PM 42.4997 -122.8833 179° South 472 543 35,000 49 Level Seattle Center
Tue 10:29:40 PM 42.3692 -122.8786 178° South 473 544 35,100  Climbing Seattle Center
Tue 10:30:41 PM 42.2125 -122.8750 179° South 472 543 35,000 -49 Descending Seattle Center
Tue 10:31:42 PM 42.0819 -122.8711 179° South 471 542 35,000  Level Seattle Center
Tue 10:32:43 PM 41.9531 -122.8683 179° South 467 537 35,000 49 Level Seattle Center
Tue 10:33:44 PM 41.8239 -122.8642 179° South 466 536 35,100  Climbing Seattle Center
Tue 10:34:45 PM 41.6967 -122.8600 179° South 462 532 35,000 -50 Descending Seattle Center
Tue 10:35:45 PM 41.5689 -122.8569 179° South 460 529 35,000  Level Seattle Center
Tue 10:36:46 PM 41.4408 -122.8536 179° South 459 528 35,000  Level Seattle Center
Tue 10:37:47 PM 41.3144 -122.8503 179° South 457 526 35,000  Level Seattle Center
Tue 10:38:48 PM 41.1878 -122.8428 177° South 456 525 35,000  Level Seattle Center
Tue 10:39:49 PM 41.0372 -122.8328 177° South 456 525 35,000 71 Level Seattle Center
Tue 10:40:13 PM 41.0108 -122.8331 180° South 459 528 35,100  Climbing Oakland Center
Tue 10:41:14 PM 40.8825 -122.8264 178° South 462 532 35,000 -49 Descending Oakland Center
Tue 10:42:15 PM 40.7308 -122.8167 177° South 458 527 35,000  Level Oakland Center
Tue 10:43:16 PM 40.6036 -122.8086 177° South 457 526 35,000  Level Oakland Center
Tue 10:44:17 PM 40.4744 -122.8008 177° South 462 532 35,000  Level Oakland Center
Tue 10:45:18 PM 40.3469 -122.7933 177° South 460 529 35,000  Level Oakland Center
Tue 10:46:20 PM 40.2194 -122.7869 178° South 458 527 35,000  Level Oakland Center
Tue 10:47:21 PM 40.0911 -122.7803 178° South 461 531 35,000  Level Oakland Center
Tue 10:48:22 PM 39.9575 -122.7731 178° South 454 522 35,000  Level Oakland Center
Tue 10:49:23 PM 39.8322 -122.7653 177° South 451 519 35,000  Level Oakland Center
Tue 10:50:24 PM 39.7086 -122.7567 177° South 449 517 35,000 -148 Level Oakland Center
Tue 10:51:25 PM 39.5844 -122.7472 177° South 447 514 34,700 -541 Descending Oakland Center
Tue 10:52:26 PM 39.4556 -122.7392 177° South 460 529 33,900 -829 Descending Oakland Center
Tue 10:53:28 PM 39.3239 -122.7267 176° South 473 544 33,000 -1,024 Descending Oakland Center
Tue 10:54:29 PM 39.1925 -122.7139 176° South 474 545 31,800 -2,656 Descending Oakland Center
Tue 10:55:30 PM 39.0319 -122.6969 175° South 482 555 27,600 -3,738 Descending Oakland Center
Tue 10:56:31 PM 38.9075 -122.6861 176° South 480 552 24,200 -3,148 Descending Oakland Center
Tue 10:57:32 PM 38.7761 -122.6733 176° South 476 548 21,200 -2,852 Descending Oakland Center
Tue 10:58:33 PM 38.6511 -122.6611 176° South 456 525 18,400 -2,732 Descending Oakland Center
Tue 10:59:35 PM 38.5314 -122.6494 176° South 436 502 15,600 -2,683 Descending Oakland Center
Tue 11:00:36 PM 38.4178 -122.6283 172° South 417 480 12,900 -2,361 Descending Oakland Center
Tue 11:01:37 PM 38.3100 -122.6083 172° South 398 458 10,800 -1,377 Descending Oakland Center
Tue 11:02:38 PM 38.2144 -122.5911 172° South 357 411 10,100 -1,131 Descending Oakland Center
Tue 11:03:39 PM 38.1153 -122.5714 171° South 311 358 8,500 -1,279 Descending Oakland Center
Tue 11:04:40 PM 38.0447 -122.5111 146° Southeast 304 350 7,500 -984 Descending Oakland Center
Tue 11:05:41 PM 37.9733 -122.4461 144° Southeast 307 353 6,500 -927 Descending Oakland Center
Tue 11:06:43 PM 37.9128 -122.3800 139° Southeast 300 345 5,600 -780 Descending Oakland Center
Tue 11:07:44 PM 37.8658 -122.3019 127° Southeast 285 328 4,900 -295 Descending Oakland Center
Tue 11:08:45 PM 37.8353 -122.2219 116° Southeast 260 299 5,000  Climbing Oakland Center
Tue 11:09:46 PM 37.8069 -122.1508 117° Southeast 234 269 4,900 -492 Descending Oakland Center
Tue 11:10:47 PM 37.7528 -122.1031 145° Southeast 246 283 4,000 -836 Descending Oakland Center
Tue 11:11:48 PM 37.7008 -122.0647 150° Southeast 228 262 3,200 -787 Descending Oakland Center
Tue 11:12:49 PM 37.6667 -122.1036 222° Southwest 189 217 2,400 -934 Descending Oakland Center
Tue 11:13:50 PM 37.6556 -122.1456 252° West 157 181 1,300 -885 Descending Oakland Center
Tue 11:14:51 PM 37.6800 -122.1822 310° West 144 166 600 2,803 Descending Oakland Center
Tue 11:15:52 PM 37.7042 -122.2189 310° West 139 160 7,000 6,295 Climbing Oakland Center

Login

Don't have an account? Register now (free) for customized features, flight alerts, and more!